Time;durP1;ratioP1;P1;durP2;ratioP2;P2;SDS_P1;SDS_P2;PMS_P1;PMS_P2;Temp;Humidity;BMP_temperature;BMP_pressure;BME280_temperature;BME280_humidity;BME280_pressure;Samples;Min_cycle;Max_cycle;Signal;HPM_P1;HPM_P2
2024/03/06 00:02:28;;;;;;;19.40;7.20;;;;;;;;;;4972968;28;20086;-46
2024/03/06 00:05:15;;;;;;;11.52;7.10;;;;;;;;;;4974541;28;20061;-48
2024/03/06 00:08:09;;;;;;;16.63;7.38;;;;;;;;;;4970535;28;20058;-50
2024/03/06 00:10:56;;;;;;;10.57;6.15;;;;;;;;;;4978670;28;20109;-62
2024/03/06 00:13:50;;;;;;;14.98;7.55;;;;;;;;;;4976313;28;20133;-62
2024/03/06 00:16:51;;;;;;;13.07;7.82;;;;;;;;;;4975231;28;20062;-62
2024/03/06 00:19:31;;;;;;;11.35;7.15;;;;;;;;;;4993136;28;20058;-63
2024/03/06 00:22:01;;;;;;;15.98;8.23;;;;;;;;;;4994946;28;20072;-63
2024/03/06 00:24:35;;;;;;;16.92;7.50;;;;;;;;;;4993648;28;20509;-59
2024/03/06 00:27:04;;;;;;;19.10;8.15;;;;;;;;;;4994962;28;20061;-60
2024/03/06 00:29:38;;;;;;;13.40;7.70;;;;;;;;;;4993564;28;20053;-59
2024/03/06 00:32:05;;;;;;;16.05;7.53;;;;;;;;;;4990790;28;20509;-60
2024/03/06 00:34:32;;;;;;;14.50;8.45;;;;;;;;;;4990245;28;20726;-55
2024/03/06 00:37:06;;;;;;;13.27;7.60;;;;;;;;;;4994203;28;20565;-62
2024/03/06 00:39:33;;;;;;;12.35;8.25;;;;;;;;;;4992202;28;20517;-50
2024/03/06 00:42:08;;;;;;;12.43;7.32;;;;;;;;;;4990466;28;20524;-49
2024/03/06 00:44:36;;;;;;;12.15;7.78;;;;;;;;;;4993942;28;20062;-49
2024/03/06 00:47:30;;;;;;;13.95;7.72;;;;;;;;;;4991550;28;20628;-51
2024/03/06 00:50:24;;;;;;;14.90;7.93;;;;;;;;;;4991964;28;20050;-47
2024/03/06 00:53:18;;;;;;;16.08;7.93;;;;;;;;;;4992413;28;20078;-52
2024/03/06 00:56:05;;;;;;;13.63;8.00;;;;;;;;;;4991142;28;20069;-54
2024/03/06 00:58:59;;;;;;;12.13;7.55;;;;;;;;;;4988620;28;20105;-53
2024/03/06 01:01:46;;;;;;;13.07;6.90;;;;;;;;;;4988521;28;20747;-54
2024/03/06 01:04:41;;;;;;;11.60;6.88;;;;;;;;;;4991345;28;20153;-57
2024/03/06 01:07:28;;;;;;;15.25;6.72;;;;;;;;;;4992351;28;20058;-64
2024/03/06 01:10:22;;;;;;;13.93;6.32;;;;;;;;;;4986215;28;20113;-65
2024/03/06 01:13:10;;;;;;;12.45;6.47;;;;;;;;;;4992718;28;20054;-64
2024/03/06 01:16:10;;;;;;;11.93;5.47;;;;;;;;;;4993867;28;20115;-63
2024/03/06 01:19:03;;;;;;;10.18;5.97;;;;;;;;;;4995358;28;20465;-64
2024/03/06 01:21:57;;;;;;;9.82;5.97;;;;;;;;;;4993601;28;20522;-64
2024/03/06 01:24:44;;;;;;;13.57;5.95;;;;;;;;;;4992750;28;20728;-64
2024/03/06 01:27:38;;;;;;;11.88;5.55;;;;;;;;;;4995062;28;20473;-64
2024/03/06 01:30:25;;;;;;;12.18;5.55;;;;;;;;;;4990934;28;20046;-64
2024/03/06 01:33:19;;;;;;;10.93;5.90;;;;;;;;;;4991905;28;20476;-59
2024/03/06 01:36:06;;;;;;;10.32;5.22;;;;;;;;;;4989841;28;20449;-62
2024/03/06 01:39:00;;;;;;;10.77;6.03;;;;;;;;;;4990847;28;20494;-62
2024/03/06 01:41:47;;;;;;;9.45;5.03;;;;;;;;;;4988867;28;20054;-62
2024/03/06 01:44:41;;;;;;;10.13;4.95;;;;;;;;;;4989688;28;20142;-62
2024/03/06 01:47:28;;;;;;;10.70;5.30;;;;;;;;;;4987825;28;20124;-61
2024/03/06 01:50:22;;;;;;;10.73;5.80;;;;;;;;;;4994113;28;20062;-61
2024/03/06 01:53:09;;;;;;;10.23;5.72;;;;;;;;;;4990238;28;20050;-61
2024/03/06 01:56:04;;;;;;;8.93;4.70;;;;;;;;;;4991516;28;20573;-60
2024/03/06 01:58:51;;;;;;;10.45;5.57;;;;;;;;;;4990196;28;20713;-61
2024/03/06 02:01:58;;;;;;;11.23;5.68;;;;;;;;;;4987866;28;20069;-61
2024/03/06 02:04:45;;;;;;;11.98;5.03;;;;;;;;;;4989051;28;20322;-62
2024/03/06 02:07:42;;;;;;;14.25;5.45;;;;;;;;;;4990458;28;20089;-60
2024/03/06 02:10:29;;;;;;;7.82;4.72;;;;;;;;;;4993133;28;20078;-60
2024/03/06 02:13:23;;;;;;;17.38;5.88;;;;;;;;;;4995021;28;20074;-59
2024/03/06 02:16:10;;;;;;;10.15;5.43;;;;;;;;;;4997448;28;20057;-59
2024/03/06 02:19:11;;;;;;;11.57;5.28;;;;;;;;;;4979563;28;20077;-64
2024/03/06 02:21:58;;;;;;;10.70;5.28;;;;;;;;;;4977111;28;20050;-63
2024/03/06 02:24:52;;;;;;;8.93;4.93;;;;;;;;;;4978660;28;20462;-64
2024/03/06 02:27:48;;;;;;;8.43;5.30;;;;;;;;;;4967776;28;20094;-64
2024/03/06 02:30:40;;;;;;;13.43;5.47;;;;;;;;;;4977787;28;20050;-64
2024/03/06 02:33:34;;;;;;;9.00;5.43;;;;;;;;;;4981079;28;20061;-64
2024/03/06 02:36:21;;;;;;;10.55;4.90;;;;;;;;;;4975689;28;20065;-64
2024/03/06 02:39:15;;;;;;;13.60;4.97;;;;;;;;;;4975908;28;20053;-64
2024/03/06 02:42:02;;;;;;;13.60;5.47;;;;;;;;;;4977335;28;20111;-64
2024/03/06 02:44:56;;;;;;;12.02;5.72;;;;;;;;;;4977263;28;20062;-64
2024/03/06 02:47:50;;;;;;;9.43;5.20;;;;;;;;;;4973269;28;20475;-52
2024/03/06 02:50:44;;;;;;;12.07;5.45;;;;;;;;;;4973102;28;20098;-53
2024/03/06 02:53:31;;;;;;;10.55;5.07;;;;;;;;;;4980007;28;20051;-55
2024/03/06 02:56:25;;;;;;;11.55;5.95;;;;;;;;;;4977427;28;20047;-56
2024/03/06 02:59:13;;;;;;;9.63;5.80;;;;;;;;;;4978354;28;20309;-46
2024/03/06 03:02:06;;;;;;;9.60;4.97;;;;;;;;;;4967433;28;20178;-62
2024/03/06 03:04:53;;;;;;;7.25;4.82;;;;;;;;;;4972071;28;20069;-61
2024/03/06 03:07:47;;;;;;;16.40;6.25;;;;;;;;;;4973445;28;20051;-62
2024/03/06 03:10:34;;;;;;;11.43;5.90;;;;;;;;;;4970758;28;20063;-62
2024/03/06 03:13:28;;;;;;;10.75;5.93;;;;;;;;;;4971588;28;22060;-61
2024/03/06 03:16:17;;;;;;;9.15;5.25;;;;;;;;;;4975339;28;20985;-64
2024/03/06 03:19:16;;;;;;;10.85;5.47;;;;;;;;;;4996587;28;20054;-64
2024/03/06 03:22:04;;;;;;;16.13;6.00;;;;;;;;;;4995910;28;20067;-64
2024/03/06 03:24:58;;;;;;;11.52;5.57;;;;;;;;;;4994653;28;20501;-57
2024/03/06 03:27:45;;;;;;;11.05;5.40;;;;;;;;;;5003613;28;20078;-64
2024/03/06 03:30:39;;;;;;;13.90;5.80;;;;;;;;;;4994349;28;20148;-61
2024/03/06 03:33:26;;;;;;;12.52;5.75;;;;;;;;;;4992229;28;20058;-60
2024/03/06 03:36:20;;;;;;;10.13;5.68;;;;;;;;;;4998083;28;20101;-61
2024/03/06 03:39:15;;;;;;;13.65;5.75;;;;;;;;;;4996552;28;20049;-60
2024/03/06 03:42:01;;;;;;;11.13;6.03;;;;;;;;;;4994470;28;20050;-61
2024/03/06 03:44:48;;;;;;;12.60;6.45;;;;;;;;;;4996770;28;20050;-53
2024/03/06 03:47:42;;;;;;;10.65;5.88;;;;;;;;;;4990692;28;20494;-54
2024/03/06 03:50:29;;;;;;;11.95;6.15;;;;;;;;;;4994332;28;20266;-56
2024/03/06 03:53:23;;;;;;;14.60;6.15;;;;;;;;;;4994652;28;20057;-62
2024/03/06 03:56:10;;;;;;;13.45;6.30;;;;;;;;;;4996442;28;20133;-60
2024/03/06 03:59:04;;;;;;;15.48;6.20;;;;;;;;;;4992672;28;20105;-56
2024/03/06 04:01:51;;;;;;;9.63;5.18;;;;;;;;;;4996367;28;20072;-56
2024/03/06 04:04:45;;;;;;;10.70;6.10;;;;;;;;;;4996980;28;20725;-55
2024/03/06 04:07:32;;;;;;;9.55;5.50;;;;;;;;;;4997010;28;20813;-55
2024/03/06 04:10:26;;;;;;;12.43;6.32;;;;;;;;;;4992558;28;20046;-52
2024/03/06 04:13:13;;;;;;;11.27;5.53;;;;;;;;;;4997988;28;20152;-58
2024/03/06 04:16:07;;;;;;;11.82;5.38;;;;;;;;;;4996868;28;20129;-60
2024/03/06 04:19:08;;;;;;;11.18;5.85;;;;;;;;;;4976639;28;20051;-59
2024/03/06 04:21:55;;;;;;;9.88;5.68;;;;;;;;;;4974128;28;20106;-60
2024/03/06 04:24:49;;;;;;;12.50;6.05;;;;;;;;;;4978180;28;20142;-62
2024/03/06 04:27:36;;;;;;;11.82;4.88;;;;;;;;;;4975142;28;20938;-47
2024/03/06 04:30:30;;;;;;;12.48;5.63;;;;;;;;;;4975046;28;20479;-51
2024/03/06 04:33:17;;;;;;;12.00;5.72;;;;;;;;;;4985625;28;20058;-47
2024/03/06 04:36:11;;;;;;;10.98;5.88;;;;;;;;;;4993107;28;20062;-46
2024/03/06 04:38:58;;;;;;;13.07;5.80;;;;;;;;;;4995366;28;20123;-48
2024/03/06 04:41:52;;;;;;;10.30;5.88;;;;;;;;;;4996803;28;20100;-60
2024/03/06 04:44:39;;;;;;;10.43;5.03;;;;;;;;;;4994376;28;20140;-59
2024/03/06 04:47:33;;;;;;;9.65;4.90;;;;;;;;;;4994271;28;20108;-60
2024/03/06 04:50:20;;;;;;;11.88;5.72;;;;;;;;;;4993417;28;20065;-61
2024/03/06 04:53:14;;;;;;;10.82;4.85;;;;;;;;;;4996227;28;20050;-60
2024/03/06 04:56:01;;;;;;;12.18;6.07;;;;;;;;;;4994078;28;20062;-54
2024/03/06 04:58:55;;;;;;;12.65;5.47;;;;;;;;;;4989697;28;20296;-54
2024/03/06 05:01:44;;;;;;;14.00;6.57;;;;;;;;;;4988294;28;20078;-56
2024/03/06 05:04:37;;;;;;;9.20;5.18;;;;;;;;;;4996196;28;20046;-55
2024/03/06 05:07:41;;;;;;;14.38;5.10;;;;;;;;;;4995345;28;20500;-55
2024/03/06 05:10:52;;;;;;;9.93;5.07;;;;;;;;;;4994501;28;20095;-59
2024/03/06 05:14:03;;;;;;;10.63;5.38;;;;;;;;;;4994916;28;20041;-58
2024/03/06 05:17:28;;;;;;;9.20;4.90;;;;;;;;;;4991496;28;20065;-59
2024/03/06 05:20:39;;;;;;;12.07;5.70;;;;;;;;;;4986498;28;20037;-61
2024/03/06 05:23:50;;;;;;;12.88;6.00;;;;;;;;;;4993293;28;20072;-62
2024/03/06 05:27:02;;;;;;;8.27;5.13;;;;;;;;;;4986714;28;20057;-62
2024/03/06 05:30:14;;;;;;;11.10;5.00;;;;;;;;;;4993773;28;20049;-62
2024/03/06 05:33:31;;;;;;;13.40;7.03;;;;;;;;;;4986586;28;20069;-63
2024/03/06 05:36:36;;;;;;;15.77;5.60;;;;;;;;;;4990797;28;20041;-61
2024/03/06 05:39:47;;;;;;;12.60;5.40;;;;;;;;;;4991719;28;20080;-60
2024/03/06 05:42:52;;;;;;;10.85;5.07;;;;;;;;;;4992958;28;20061;-60
2024/03/06 05:46:04;;;;;;;10.40;5.63;;;;;;;;;;4993555;28;20064;-60
2024/03/06 05:49:16;;;;;;;9.73;5.45;;;;;;;;;;4997213;28;20524;-59
2024/03/06 05:52:20;;;;;;;9.57;4.78;;;;;;;;;;4995171;28;20184;-52
2024/03/06 05:55:31;;;;;;;10.68;5.78;;;;;;;;;;4998949;28;20126;-50
2024/03/06 05:58:37;;;;;;;11.77;5.38;;;;;;;;;;4991500;28;20104;-49
2024/03/06 06:01:30;;;;;;;10.15;5.43;;;;;;;;;;4996947;28;20073;-49
2024/03/06 06:04:17;;;;;;;10.43;4.32;;;;;;;;;;4993583;28;20045;-51
2024/03/06 06:07:26;;;;;;;13.43;5.65;;;;;;;;;;5000842;28;20583;-48
2024/03/06 06:10:20;;;;;;;9.65;5.10;;;;;;;;;;4998630;28;20062;-50
2024/03/06 06:13:07;;;;;;;9.82;5.82;;;;;;;;;;5000502;28;20054;-46
2024/03/06 06:16:04;;;;;;;9.13;5.45;;;;;;;;;;4999518;28;20054;-52
2024/03/06 06:18:58;;;;;;;11.65;5.72;;;;;;;;;;4994048;28;20058;-61
2024/03/06 06:21:55;;;;;;;12.23;6.05;;;;;;;;;;5000817;28;20493;-59
2024/03/06 06:24:49;;;;;;;9.23;5.25;;;;;;;;;;4995264;28;20572;-60
2024/03/06 06:27:36;;;;;;;12.52;5.13;;;;;;;;;;4997396;28;20137;-59
2024/03/06 06:30:30;;;;;;;10.77;4.95;;;;;;;;;;4995476;28;20170;-60
2024/03/06 06:33:17;;;;;;;15.73;5.45;;;;;;;;;;4991364;28;20065;-61
2024/03/06 06:36:11;;;;;;;11.27;5.28;;;;;;;;;;4998191;28;20502;-61
2024/03/06 06:38:58;;;;;;;12.25;5.50;;;;;;;;;;4998462;28;20049;-61
2024/03/06 06:41:52;;;;;;;11.60;5.40;;;;;;;;;;4997182;28;20054;-61
2024/03/06 06:44:41;;;;;;;10.88;5.57;;;;;;;;;;4996569;28;20054;-56
2024/03/06 06:47:33;;;;;;;12.98;5.97;;;;;;;;;;4994550;28;20121;-64
2024/03/06 06:50:25;;;;;;;11.02;5.38;;;;;;;;;;4999786;28;20050;-64
2024/03/06 06:53:17;;;;;;;13.63;5.03;;;;;;;;;;5000003;28;20042;-64
2024/03/06 06:56:05;;;;;;;12.73;5.40;;;;;;;;;;4997582;28;20069;-64
2024/03/06 06:58:59;;;;;;;10.18;5.03;;;;;;;;;;4997449;28;20053;-64
2024/03/06 07:01:54;;;;;;;9.95;5.22;;;;;;;;;;4997360;28;20050;-64
2024/03/06 07:05:08;;;;;;;10.80;4.35;;;;;;;;;;4996119;28;20107;-62
2024/03/06 07:08:02;;;;;;;8.30;4.88;;;;;;;;;;4997482;28;20269;-61
2024/03/06 07:10:57;;;;;;;9.40;4.68;;;;;;;;;;4998815;28;20277;-61
2024/03/06 07:13:51;;;;;;;7.85;4.75;;;;;;;;;;4996615;28;20080;-60
2024/03/06 07:16:44;;;;;;;9.63;5.15;;;;;;;;;;4994739;28;20060;-46
2024/03/06 07:19:44;;;;;;;6.55;4.40;;;;;;;;;;4975869;28;20093;-46
2024/03/06 07:22:33;;;;;;;9.00;5.07;;;;;;;;;;4978314;28;20062;-50
2024/03/06 07:25:26;;;;;;;8.23;4.38;;;;;;;;;;4976810;28;20069;-46
2024/03/06 07:28:13;;;;;;;10.43;4.78;;;;;;;;;;4975769;28;20062;-48
2024/03/06 07:31:07;;;;;;;11.55;4.70;;;;;;;;;;4977836;28;20049;-51
2024/03/06 07:33:54;;;;;;;16.05;5.28;;;;;;;;;;4976043;28;20495;-51
2024/03/06 07:36:48;;;;;;;10.02;4.63;;;;;;;;;;4975813;28;20055;-53
2024/03/06 07:39:36;;;;;;;9.50;4.22;;;;;;;;;;4975378;28;20058;-54
2024/03/06 07:42:30;;;;;;;15.48;4.80;;;;;;;;;;4973089;28;20046;-46
2024/03/06 07:45:17;;;;;;;9.70;4.55;;;;;;;;;;4975876;28;20110;-51
2024/03/06 07:48:11;;;;;;;10.13;4.90;;;;;;;;;;4973561;28;20125;-52
2024/03/06 07:51:05;;;;;;;9.50;5.25;;;;;;;;;;4972874;28;20086;-50
2024/03/06 07:53:59;;;;;;;8.98;4.80;;;;;;;;;;4975790;28;20087;-49
2024/03/06 07:56:48;;;;;;;9.20;4.75;;;;;;;;;;4974779;28;20090;-47
2024/03/06 07:59:41;;;;;;;11.60;4.93;;;;;;;;;;4978268;28;20050;-51
2024/03/06 08:02:29;;;;;;;9.20;4.78;;;;;;;;;;4975075;28;20450;-50
2024/03/06 08:05:22;;;;;;;8.40;4.60;;;;;;;;;;4975520;28;20061;-52
2024/03/06 08:08:09;;;;;;;10.60;4.97;;;;;;;;;;4977683;28;20042;-52
2024/03/06 08:11:03;;;;;;;8.52;4.90;;;;;;;;;;4975147;28;20059;-65
2024/03/06 08:13:51;;;;;;;12.27;5.25;;;;;;;;;;4976634;28;20059;-45
2024/03/06 08:16:44;;;;;;;11.45;4.97;;;;;;;;;;4971745;28;20062;-47
2024/03/06 08:19:38;;;;;;;8.15;3.95;;;;;;;;;;4976757;28;20596;-48
2024/03/06 08:22:32;;;;;;;9.15;5.00;;;;;;;;;;4979398;28;20054;-49
2024/03/06 08:25:19;;;;;;;10.35;4.85;;;;;;;;;;4976635;28;20066;-49
2024/03/06 08:28:13;;;;;;;9.30;4.57;;;;;;;;;;4974712;28;20050;-52
2024/03/06 08:31:01;;;;;;;11.10;4.43;;;;;;;;;;4975631;28;20117;-51
2024/03/06 08:33:54;;;;;;;12.02;4.32;;;;;;;;;;4973972;28;20101;-50
2024/03/06 08:36:41;;;;;;;10.77;4.55;;;;;;;;;;4974094;28;20050;-51
2024/03/06 08:39:35;;;;;;;10.00;4.75;;;;;;;;;;4971587;28;20054;-61
2024/03/06 08:42:29;;;;;;;6.75;4.00;;;;;;;;;;4975863;28;20462;-49
2024/03/06 08:45:17;;;;;;;6.80;4.07;;;;;;;;;;4973821;28;20066;-53
2024/03/06 08:48:11;;;;;;;6.13;3.40;;;;;;;;;;4974529;28;20619;-52
2024/03/06 08:50:58;;;;;;;7.93;4.70;;;;;;;;;;4974203;28;20399;-53
2024/03/06 08:53:52;;;;;;;8.82;4.90;;;;;;;;;;4977895;28;20058;-53
2024/03/06 08:56:44;;;;;;;10.43;4.43;;;;;;;;;;4975655;28;20490;-56
2024/03/06 08:59:37;;;;;;;8.65;4.40;;;;;;;;;;4975763;28;20089;-55
2024/03/06 09:02:25;;;;;;;9.93;5.10;;;;;;;;;;4971129;28;20058;-55
2024/03/06 09:05:18;;;;;;;8.38;4.57;;;;;;;;;;4974957;28;20046;-57
2024/03/06 09:08:05;;;;;;;9.90;3.38;;;;;;;;;;4973144;28;20057;-59
2024/03/06 09:10:59;;;;;;;9.45;4.35;;;;;;;;;;4977154;28;20046;-62
2024/03/06 09:13:46;;;;;;;12.18;4.65;;;;;;;;;;4978922;28;20117;-60
2024/03/06 09:16:40;;;;;;;11.15;4.38;;;;;;;;;;4975350;28;20053;-61
2024/03/06 09:19:34;;;;;;;12.15;4.80;;;;;;;;;;4979553;28;20050;-61
2024/03/06 09:22:39;;;;;;;10.80;4.50;;;;;;;;;;4978620;28;20515;-62
2024/03/06 09:25:26;;;;;;;11.30;5.13;;;;;;;;;;4979080;28;20094;-48
2024/03/06 09:28:20;;;;;;;8.15;4.00;;;;;;;;;;4975295;28;20054;-48
2024/03/06 09:31:13;;;;;;;11.02;4.25;;;;;;;;;;4973345;28;20058;-54
2024/03/06 09:34:07;;;;;;;7.72;3.35;;;;;;;;;;4967530;28;20106;-47
2024/03/06 09:36:54;;;;;;;11.50;5.28;;;;;;;;;;4975856;28;20050;-64
2024/03/06 09:39:48;;;;;;;7.35;3.65;;;;;;;;;;4973701;28;20047;-44
2024/03/06 09:42:35;;;;;;;6.95;3.60;;;;;;;;;;4972424;28;20054;-48
2024/03/06 09:45:29;;;;;;;10.20;3.50;;;;;;;;;;4974014;28;20054;-48
2024/03/06 09:48:17;;;;;;;9.57;3.88;;;;;;;;;;4973373;28;20063;-45
2024/03/06 09:51:12;;;;;;;7.40;4.38;;;;;;;;;;4971589;28;20109;-53
2024/03/06 09:53:59;;;;;;;9.75;3.05;;;;;;;;;;4975564;28;20046;-63
2024/03/06 09:56:52;;;;;;;9.15;4.50;;;;;;;;;;4975814;28;20047;-62
2024/03/06 09:59:43;;;;;;;11.63;4.47;;;;;;;;;;4974383;28;20059;-63
2024/03/06 10:02:38;;;;;;;9.13;4.20;;;;;;;;;;4970408;28;20061;-62
2024/03/06 10:05:26;;;;;;;12.45;4.22;;;;;;;;;;4972772;28;20081;-59
2024/03/06 10:08:21;;;;;;;7.68;4.18;;;;;;;;;;4965388;28;20054;-47
2024/03/06 10:11:14;;;;;;;7.32;3.88;;;;;;;;;;4975795;28;20062;-46
2024/03/06 10:14:10;;;;;;;8.35;4.43;;;;;;;;;;4976279;28;20105;-47
2024/03/06 10:17:09;;;;;;;12.38;4.43;;;;;;;;;;4972775;28;20042;-46
2024/03/06 10:20:18;;;;;;;6.68;3.53;;;;;;;;;;4997519;28;20123;-48
2024/03/06 10:23:11;;;;;;;5.65;3.85;;;;;;;;;;4995554;28;20109;-61
2024/03/06 10:26:14;;;;;;;10.68;2.50;;;;;;;;;;4995933;28;20061;-61
2024/03/06 10:29:16;;;;;;;10.23;3.88;;;;;;;;;;4990989;28;20054;-61
2024/03/06 10:32:03;;;;;;;7.07;3.50;;;;;;;;;;4995163;28;20049;-64
2024/03/06 10:34:57;;;;;;;9.23;4.38;;;;;;;;;;4996644;28;20579;-49
2024/03/06 10:37:54;;;;;;;6.95;3.08;;;;;;;;;;5000552;28;20512;-65
2024/03/06 10:40:43;;;;;;;13.75;4.20;;;;;;;;;;5000473;28;20054;-65
2024/03/06 10:43:36;;;;;;;9.90;4.32;;;;;;;;;;4996794;28;20169;-64
2024/03/06 10:46:24;;;;;;;8.05;3.63;;;;;;;;;;4994710;28;20050;-64
2024/03/06 10:49:18;;;;;;;9.80;3.60;;;;;;;;;;4993906;28;20057;-64
2024/03/06 10:52:12;;;;;;;10.52;4.53;;;;;;;;;;4995716;28;20053;-60
2024/03/06 10:55:06;;;;;;;6.65;3.67;;;;;;;;;;4996722;28;20104;-60
2024/03/06 10:57:54;;;;;;;10.00;4.18;;;;;;;;;;4995699;28;20125;-60
2024/03/06 11:00:48;;;;;;;8.25;3.60;;;;;;;;;;4996229;28;20054;-55
2024/03/06 11:03:37;;;;;;;8.45;3.92;;;;;;;;;;4998431;28;20103;-59
2024/03/06 11:06:30;;;;;;;10.00;3.53;;;;;;;;;;4989659;28;20116;-60
2024/03/06 11:09:24;;;;;;;9.52;4.07;;;;;;;;;;4997051;28;20054;-60
2024/03/06 11:12:11;;;;;;;9.80;3.95;;;;;;;;;;4997660;28;20057;-59
2024/03/06 11:15:14;;;;;;;7.60;4.00;;;;;;;;;;4998027;28;20053;-60
2024/03/06 11:18:20;;;;;;;8.00;3.67;;;;;;;;;;4998724;28;20144;-58
2024/03/06 11:21:21;;;;;;;8.25;3.40;;;;;;;;;;4998397;28;20555;-54
2024/03/06 11:24:28;;;;;;;4.90;2.38;;;;;;;;;;4998870;28;20065;-56
2024/03/06 11:27:23;;;;;;;8.45;3.40;;;;;;;;;;4998779;28;20529;-54
2024/03/06 11:30:16;;;;;;;5.45;3.30;;;;;;;;;;4996849;28;20061;-60
2024/03/06 11:33:13;;;;;;;7.82;3.45;;;;;;;;;;4997022;28;20057;-64
2024/03/06 11:36:28;;;;;;;9.68;3.47;;;;;;;;;;4995469;28;20061;-65
2024/03/06 11:39:20;;;;;;;13.48;4.43;;;;;;;;;;4997748;28;20061;-64
2024/03/06 11:42:08;;;;;;;9.38;3.92;;;;;;;;;;4995854;28;20104;-64
2024/03/06 11:45:13;;;;;;;10.30;4.30;;;;;;;;;;4995028;28;20499;-64
2024/03/06 11:48:03;;;;;;;8.20;3.42;;;;;;;;;;4994124;28;20058;-60
2024/03/06 11:50:59;;;;;;;7.38;3.83;;;;;;;;;;4999051;28;20078;-61
2024/03/06 11:53:47;;;;;;;6.82;3.40;;;;;;;;;;4995502;28;20492;-59
2024/03/06 11:56:40;;;;;;;11.10;3.65;;;;;;;;;;4994650;28;20058;-60
2024/03/06 11:59:35;;;;;;;7.60;3.50;;;;;;;;;;4997891;28;20105;-65
2024/03/06 12:02:23;;;;;;;6.97;3.38;;;;;;;;;;4998398;28;20112;-49
2024/03/06 12:05:16;;;;;;;7.50;2.92;;;;;;;;;;4994392;28;20150;-49
2024/03/06 12:08:04;;;;;;;9.27;3.35;;;;;;;;;;4996818;28;20077;-46
2024/03/06 12:10:58;;;;;;;7.03;3.60;;;;;;;;;;4998317;28;20168;-48
2024/03/06 12:13:44;;;;;;;7.35;3.75;;;;;;;;;;4995041;28;20133;-48
2024/03/06 12:16:38;;;;;;;8.43;3.50;;;;;;;;;;4996966;28;20046;-60
2024/03/06 12:19:36;;;;;;;8.10;3.00;;;;;;;;;;4995054;28;20050;-60
2024/03/06 12:22:29;;;;;;;7.75;3.67;;;;;;;;;;4994005;28;20074;-60
2024/03/06 12:25:23;;;;;;;12.48;3.80;;;;;;;;;;4997303;28;20066;-60
2024/03/06 12:28:31;;;;;;;10.55;3.53;;;;;;;;;;4992355;28;20081;-62
2024/03/06 12:31:18;;;;;;;9.80;3.67;;;;;;;;;;4995184;28;20129;-61
2024/03/06 12:34:17;;;;;;;8.85;3.40;;;;;;;;;;4994832;28;20085;-61
2024/03/06 12:37:12;;;;;;;12.60;4.00;;;;;;;;;;4994705;28;20105;-61
2024/03/06 12:40:13;;;;;;;6.30;3.28;;;;;;;;;;4994934;28;20061;-61
2024/03/06 12:42:54;;;;;;;12.05;3.97;;;;;;;;;;4990656;28;20101;-61
2024/03/06 12:45:47;;;;;;;9.88;2.92;;;;;;;;;;4994906;28;20767;-52
2024/03/06 12:48:34;;;;;;;6.60;3.50;;;;;;;;;;4995957;28;20060;-52
2024/03/06 12:51:28;;;;;;;6.32;3.10;;;;;;;;;;4992560;28;20053;-52
2024/03/06 12:54:15;;;;;;;8.90;3.45;;;;;;;;;;4994087;28;20057;-65
2024/03/06 12:57:09;;;;;;;8.10;3.30;;;;;;;;;;4994737;28;20054;-66
2024/03/06 12:59:56;;;;;;;6.90;3.38;;;;;;;;;;4994000;28;20053;-68
2024/03/06 13:02:50;;;;;;;8.95;3.33;;;;;;;;;;4994059;28;20191;-65
2024/03/06 13:05:38;;;;;;;9.77;3.05;;;;;;;;;;4995871;28;20062;-68
2024/03/06 13:08:31;;;;;;;6.53;3.30;;;;;;;;;;4998937;28;20160;-66
2024/03/06 13:11:19;;;;;;;12.45;2.90;;;;;;;;;;4997467;28;20049;-66
2024/03/06 13:14:12;;;;;;;6.63;3.45;;;;;;;;;;4994638;28;20058;-63
2024/03/06 13:17:01;;;;;;;8.48;3.33;;;;;;;;;;4993210;28;20050;-62
2024/03/06 13:20:01;;;;;;;5.93;3.25;;;;;;;;;;4976565;28;20506;-62
2024/03/06 13:22:55;;;;;;;10.88;4.10;;;;;;;;;;4975154;28;20068;-61
2024/03/06 13:25:43;;;;;;;7.78;3.28;;;;;;;;;;4968233;28;20051;-62
2024/03/06 13:28:36;;;;;;;9.38;3.60;;;;;;;;;;4965473;28;20066;-65
2024/03/06 13:31:23;;;;;;;5.70;2.60;;;;;;;;;;4974730;28;20050;-65
2024/03/06 13:34:17;;;;;;;7.10;3.55;;;;;;;;;;4966838;28;20582;-65
2024/03/06 13:37:07;;;;;;;8.57;3.92;;;;;;;;;;4972673;28;21624;-65
2024/03/06 13:40:00;;;;;;;9.57;3.65;;;;;;;;;;4969501;28;20466;-65
2024/03/06 13:42:53;;;;;;;7.60;3.75;;;;;;;;;;4977037;28;20064;-65
2024/03/06 13:45:49;;;;;;;9.43;3.45;;;;;;;;;;4974249;28;20046;-65
2024/03/06 13:48:42;;;;;;;11.18;3.65;;;;;;;;;;4968744;28;20047;-64
2024/03/06 13:51:36;;;;;;;7.15;3.00;;;;;;;;;;4975282;28;20105;-58
2024/03/06 13:54:31;;;;;;;10.25;3.55;;;;;;;;;;4978140;28;20113;-65
2024/03/06 13:57:25;;;;;;;11.18;3.78;;;;;;;;;;4974757;28;20466;-65
2024/03/06 14:00:16;;;;;;;9.55;3.60;;;;;;;;;;4975386;28;20066;-62
2024/03/06 14:03:06;;;;;;;7.22;3.40;;;;;;;;;;4958011;28;20641;-66
2024/03/06 14:05:53;;;;;;;7.78;3.30;;;;;;;;;;4975990;28;20049;-65
2024/03/06 14:08:47;;;;;;;6.45;2.72;;;;;;;;;;4974524;28;20054;-64
2024/03/06 14:11:35;;;;;;;6.30;3.65;;;;;;;;;;4977503;28;20054;-55
2024/03/06 14:14:28;;;;;;;8.65;3.47;;;;;;;;;;4981906;28;20050;-58
2024/03/06 14:17:15;;;;;;;8.15;3.17;;;;;;;;;;4979301;28;20061;-57
2024/03/06 14:20:16;;;;;;;8.38;3.58;;;;;;;;;;4975969;28;20515;-66
2024/03/06 14:23:09;;;;;;;8.07;3.30;;;;;;;;;;4976824;28;20043;-66
2024/03/06 14:25:56;;;;;;;10.95;3.92;;;;;;;;;;4977173;28;20058;-66
2024/03/06 14:28:50;;;;;;;10.18;3.72;;;;;;;;;;4974667;28;20050;-66
2024/03/06 14:31:44;;;;;;;8.10;3.80;;;;;;;;;;4977170;28;20094;-66
2024/03/06 14:34:38;;;;;;;12.43;4.15;;;;;;;;;;4976155;28;20506;-65
2024/03/06 14:37:32;;;;;;;12.00;3.35;;;;;;;;;;4974682;28;20061;-65
2024/03/06 14:40:19;;;;;;;5.82;3.33;;;;;;;;;;4978700;28;20125;-61
2024/03/06 14:43:13;;;;;;;10.75;3.33;;;;;;;;;;4974704;28;20062;-62
2024/03/06 14:46:00;;;;;;;6.45;3.30;;;;;;;;;;4978448;28;20125;-63
2024/03/06 14:48:54;;;;;;;6.18;3.22;;;;;;;;;;4978290;28;20054;-60
2024/03/06 14:51:41;;;;;;;10.38;4.03;;;;;;;;;;4973019;28;20055;-64
2024/03/06 14:54:35;;;;;;;10.00;3.78;;;;;;;;;;4976625;28;20104;-64
2024/03/06 14:57:23;;;;;;;11.20;3.67;;;;;;;;;;4981496;28;20043;-63
2024/03/06 15:00:20;;;;;;;8.77;3.65;;;;;;;;;;4975889;28;20086;-64
2024/03/06 15:03:03;;;;;;;9.35;3.47;;;;;;;;;;4977436;28;20050;-64
2024/03/06 15:05:57;;;;;;;9.73;3.88;;;;;;;;;;4977883;28;20082;-64
2024/03/06 15:08:51;;;;;;;9.77;4.20;;;;;;;;;;4984304;28;20058;-57
2024/03/06 15:11:46;;;;;;;10.95;3.40;;;;;;;;;;4986158;28;20038;-55
2024/03/06 15:14:39;;;;;;;8.38;3.80;;;;;;;;;;4984857;28;20089;-54
2024/03/06 15:17:33;;;;;;;8.25;3.60;;;;;;;;;;4979639;28;20514;-60
2024/03/06 15:20:28;;;;;;;9.68;4.00;;;;;;;;;;5000980;28;20070;-61
2024/03/06 15:23:21;;;;;;;7.32;3.80;;;;;;;;;;4990940;28;20058;-62
2024/03/06 15:26:08;;;;;;;9.35;3.70;;;;;;;;;;4999517;28;20054;-60
2024/03/06 15:29:04;;;;;;;9.13;3.25;;;;;;;;;;4995888;28;20137;-62
2024/03/06 15:31:49;;;;;;;8.57;3.33;;;;;;;;;;4998169;28;20053;-60
2024/03/06 15:34:46;;;;;;;6.28;3.85;;;;;;;;;;4994314;28;20057;-63
2024/03/06 15:37:33;;;;;;;7.32;3.60;;;;;;;;;;4999164;28;20054;-52
2024/03/06 15:40:27;;;;;;;10.20;3.95;;;;;;;;;;5000583;28;20066;-54
2024/03/06 15:43:14;;;;;;;10.05;4.70;;;;;;;;;;5001912;28;20061;-47
2024/03/06 15:46:08;;;;;;;13.07;3.97;;;;;;;;;;4999317;28;20046;-54
2024/03/06 15:49:24;;;;;;;11.70;3.88;;;;;;;;;;4998181;28;20050;-60
2024/03/06 15:52:13;;;;;;;8.23;3.83;;;;;;;;;;4998668;28;20445;-60
2024/03/06 15:55:00;;;;;;;8.88;4.05;;;;;;;;;;4996459;28;20065;-60
2024/03/06 15:58:15;;;;;;;5.95;3.45;;;;;;;;;;4999078;28;20061;-60
2024/03/06 16:01:09;;;;;;;10.25;3.80;;;;;;;;;;4998860;28;20100;-63
2024/03/06 16:04:03;;;;;;;12.50;4.22;;;;;;;;;;4999496;28;20386;-56
2024/03/06 16:06:58;;;;;;;14.03;4.43;;;;;;;;;;5001819;28;20053;-57
2024/03/06 16:09:59;;;;;;;11.80;3.90;;;;;;;;;;5000513;28;20520;-58
2024/03/06 16:12:46;;;;;;;9.50;3.95;;;;;;;;;;4999206;28;20058;-55
2024/03/06 16:15:40;;;;;;;10.85;3.70;;;;;;;;;;4999289;28;20120;-46
2024/03/06 16:18:41;;;;;;;9.43;3.92;;;;;;;;;;4998255;28;20049;-55
2024/03/06 16:21:41;;;;;;;10.18;4.03;;;;;;;;;;4997564;28;20552;-57
2024/03/06 16:24:35;;;;;;;13.35;4.05;;;;;;;;;;4995222;28;20136;-58
2024/03/06 16:27:22;;;;;;;8.88;3.78;;;;;;;;;;4995784;28;20104;-58
2024/03/06 16:30:16;;;;;;;10.52;4.30;;;;;;;;;;4997718;28;20069;-56
2024/03/06 16:33:03;;;;;;;9.35;3.70;;;;;;;;;;4997654;28;20050;-64
2024/03/06 16:35:57;;;;;;;9.88;3.70;;;;;;;;;;4999721;28;20503;-64
2024/03/06 16:38:51;;;;;;;10.48;3.58;;;;;;;;;;4996457;28;20051;-63
2024/03/06 16:41:41;;;;;;;8.75;4.20;;;;;;;;;;4993175;28;20051;-63
2024/03/06 16:44:36;;;;;;;10.75;4.40;;;;;;;;;;4995758;28;20046;-54
2024/03/06 16:47:22;;;;;;;10.18;3.75;;;;;;;;;;4996898;28;20145;-62
2024/03/06 16:50:16;;;;;;;10.23;4.30;;;;;;;;;;4992461;28;20152;-63
2024/03/06 16:53:06;;;;;;;9.57;4.15;;;;;;;;;;4992897;28;20189;-60
2024/03/06 16:55:57;;;;;;;10.50;4.13;;;;;;;;;;4995888;28;20052;-62
2024/03/06 16:58:44;;;;;;;9.25;4.20;;;;;;;;;;4994408;28;20390;-60
2024/03/06 17:01:38;;;;;;;9.18;3.85;;;;;;;;;;4995586;28;20484;-67
2024/03/06 17:04:25;;;;;;;14.43;4.57;;;;;;;;;;4993137;28;20468;-67
2024/03/06 17:07:19;;;;;;;13.60;4.13;;;;;;;;;;4994990;28;20191;-67